createdAt,value
2019-03-27T00:05:11.508Z,93828.13
2019-03-27T00:20:44.663Z,93819.72
2019-03-27T00:36:18.161Z,93824.03
2019-03-27T00:51:51.421Z,93822.78
2019-03-27T01:07:24.404Z,93837.77
2019-03-27T01:22:57.862Z,93836.47
2019-03-27T01:38:31.237Z,93847.34
2019-03-27T01:54:04.688Z,93868.98
2019-03-27T02:09:37.522Z,93871.14
2019-03-27T02:25:10.368Z,93870.09
2019-03-27T02:40:43.852Z,93890.91
2019-03-27T02:56:17.188Z,93897.69
2019-03-27T03:11:50.497Z,93905.95
2019-03-27T03:27:23.838Z,93915.73
2019-03-27T03:42:56.806Z,93921.38
2019-03-27T03:58:31.674Z,93940.89
2019-03-27T04:14:04.915Z,93969.86
2019-03-27T04:29:38.015Z,93961.09
2019-03-27T04:45:11.126Z,93974.98
2019-03-27T05:00:44.579Z,93991.88
2019-03-27T05:16:17.848Z,94015.48
2019-03-27T05:31:51.305Z,94018.91
2019-03-27T05:47:24.555Z,94019.14
2019-03-27T06:02:57.881Z,94026.59
2019-03-27T06:18:30.938Z,94036.97
2019-03-27T06:34:04.039Z,94036.05
2019-03-27T06:49:37.181Z,94036.11
2019-03-27T07:05:10.382Z,94045.72
2019-03-27T07:20:43.328Z,94044.84
2019-03-27T07:36:16.433Z,94047.64
2019-03-27T07:51:49.700Z,94040.63
2019-03-27T08:07:26.942Z,94058.56
2019-03-27T08:22:58.201Z,94062.86
2019-03-27T08:38:31.937Z,94064.69
2019-03-27T08:54:05.001Z,94068.77
2019-03-27T09:09:38.237Z,94060.47
2019-03-27T09:25:11.056Z,94051.78
2019-03-27T09:40:44.004Z,94045.02
2019-03-27T09:56:19.370Z,94036.26
2019-03-27T10:11:52.294Z,94024.51
2019-03-27T10:27:25.254Z,94017.72
2019-03-27T10:42:58.486Z,93998.81
2019-03-27T10:58:31.560Z,93994.02
2019-03-27T11:14:05.564Z,93970.94
2019-03-27T11:29:39.464Z,93957.11
2019-03-27T11:45:12.276Z,93949.92
2019-03-27T12:00:54.652Z,93922.50
2019-03-27T12:16:20.480Z,93919.40
2019-03-27T12:31:53.909Z,93915.60
2019-03-27T12:47:27.448Z,93901.45
2019-03-27T13:03:00.145Z,93900.25
2019-03-27T13:18:32.973Z,93893.03
2019-03-27T13:34:05.942Z,93894.03
2019-03-27T13:49:38.925Z,93891.62
2019-03-27T14:05:12.260Z,93899.45
2019-03-27T14:20:45.734Z,93899.77
2019-03-27T14:36:18.620Z,93906.62
2019-03-27T14:51:51.705Z,93920.23
2019-03-27T15:07:24.497Z,93919.66
2019-03-27T15:38:35.741Z,93944.27
2019-03-27T15:54:09.022Z,93945.09
2019-03-27T16:09:41.971Z,93968.16
2019-03-27T16:25:15.322Z,93979.82
2019-03-27T16:41:02.420Z,94010.33
2019-03-27T16:56:35.522Z,94039.69
2019-03-27T17:12:08.671Z,94061.42
2019-03-27T17:27:41.466Z,94101.27
2019-03-27T17:43:14.877Z,94118.94
2019-03-27T17:58:47.826Z,94138.52
2019-03-27T18:14:21.294Z,94163.84
2019-03-27T18:29:54.377Z,94171.81
2019-03-27T18:45:28.653Z,94161.02
2019-03-27T19:01:01.689Z,94174.42
2019-03-27T19:16:34.580Z,94184.47
2019-03-27T19:32:07.997Z,94200.47
2019-03-27T19:47:41.897Z,94198.78
2019-03-27T20:03:14.904Z,94206.95
2019-03-27T20:18:49.424Z,94204.20
2019-03-27T20:34:22.369Z,94221.84
2019-03-27T20:49:55.648Z,94233.41
2019-03-27T21:05:30.319Z,94250.41
2019-03-27T21:21:03.709Z,94250.45
2019-03-27T21:36:36.825Z,94255.73
2019-03-27T21:52:10.192Z,94264.44
2019-03-27T22:07:43.241Z,94270.61
2019-03-27T22:23:16.535Z,94266.28
2019-03-27T22:38:49.664Z,94292.75
2019-03-27T22:54:22.677Z,94301.80
2019-03-27T23:09:55.391Z,94311.34
2019-03-27T23:25:28.319Z,94309.27
2019-03-27T23:41:01.521Z,94315.89
2019-03-27T23:56:34.640Z,94311.20
